ADDS METAR Data INFO
IDs: Format: Raw Decoded Include TAF

Data at: 1923 UTC 23 Apr 2018

KAMG 231853Z AUTO 22006KT 10SM FEW034 SCT048 BKN070 27/19 A2993 RMK AO2 SLP133 T02720189
KAMG 231753Z AUTO 23007KT 10SM FEW030 27/19 A2995 RMK AO2 SLP141 60000 T02670194 10272 20194 58018
KAMG 231706Z AUTO 22006KT 10SM SCT022 SCT031 BKN047 26/20 A2997 RMK AO2 T02560200
KAMG 231653Z AUTO 20008KT 10SM BKN022 BKN033 BKN070 25/20 A2997 RMK AO2 RAB35E52 SLP148 P0000 T02500200
KAMG 231553Z AUTO 18004KT 10SM SCT014 BKN020 BKN070 25/21 A3000 RMK AO2 RAB11E20 SLP155 P0000 T02500206 $
KAMG 231527Z AUTO 14005KT 10SM FEW011 BKN022 OVC055 23/21 A3000 RMK AO2 RAB11E20 P0000 T02330206 $
KAMG 231511Z AUTO VRB05KT 9SM -RA SCT015 BKN041 OVC055 23/20 A3000 RMK AO2 RAB11 P0000 T02330200 $
KAMG 231453Z AUTO 14003KT 10SM FEW009 BKN017 OVC027 23/20 A3001 RMK AO2 SLP159 T02280200 56000 $
KAMG 231451Z AUTO 14004KT 10SM SCT009 BKN017 OVC025 23/20 A3001 RMK AO2 $
KAMG 231353Z AUTO 16005KT 10SM BKN008 OVC013 22/20 A3000 RMK AO2 CIG 006V010 SLP158 T02170200 $
KAMG 231327Z AUTO 10004KT 10SM BKN005 BKN012 OVC017 21/19 A3001 RMK AO2 CIG 004V009 T02110194 $
KAMG 231320Z AUTO 00000KT 10SM SCT005 BKN013 OVC019 21/19 A3001 RMK AO2 T02060194 $
KAMG 231308Z AUTO VRB03KT 10SM BKN007 BKN015 OVC019 21/19 A3001 RMK AO2 CIG 004V010 T02060189 $
KAMG 231301Z AUTO 10007KT 10SM SCT007 BKN011 OVC019 20/19 A3001 RMK AO2 T02000189 $
KAMG 231253Z AUTO 10007KT 10SM BKN007 OVC016 20/19 A3001 RMK AO2 CIG 004V012 SLP160 T02000189 $
KAMG 231249Z AUTO 10005KT 10SM BKN007 BKN016 OVC021 20/19 A3001 RMK AO2 CIG 004V012 $
KAMG 231153Z AUTO 09004KT 10SM FEW006 OVC011 19/18 A3000 RMK AO2 SLP156 60089 70095 T01940183 10194 20189 51005 $
KAMG 231150Z AUTO 09004KT 10SM FEW006 OVC011 19/18 A3000 RMK AO2 $
KAMG 231137Z AUTO 09004KT 10SM BKN012 BKN038 OVC090 19/18 A3000 RMK AO2 T01940183 $
KAMG 231124Z AUTO 08004KT 10SM SCT016 SCT037 OVC090 19/18 A2999 RMK AO2 T01940183 $
KAMG 231053Z AUTO VRB03KT 10SM BKN015 BKN020 OVC042 19/18 A2999 RMK AO2 RAE10B29E44 SLP153 P0003 T01940183 $
KAMG 231003Z AUTO 11005KT 9SM -RA BKN021 OVC043 19/18 A2999 RMK AO2 P0000 T01940178 $
KAMG 230953Z AUTO 11005KT 6SM -RA BR SCT025 BKN043 OVC080 19/18 A2998 RMK AO2 SLP151 P0039 T01940178 $
KAMG 230934Z AUTO 11003KT 6SM -RA BR FEW006 BKN039 OVC080 19/18 A2999 RMK AO2 P0038 T01940183 $
KAMG 230927Z AUTO VRB06G14KT 2SM RA BR SCT005 BKN027 OVC065 19/18 A2999 RMK AO2 P0038 T01940183 $
KAMG 230907Z AUTO 11008KT 080V150 1 1/2SM +RA BR BKN007 OVC011 19/18 A2998 RMK AO2 P0020 T01890178 $
KAMG 230853Z AUTO 11005KT 1 3/4SM +RA BR SCT007 BKN013 OVC055 19/18 A2997 RMK AO2 SLP148 P0034 60047 T01890178 58010 $
KAMG 230851Z AUTO 10007KT 1 3/4SM +RA BR SCT007 BKN013 OVC055 19/18 A2997 RMK AO2 P0032 $
KAMG 230839Z AUTO 10009KT 3SM RA BR SCT007 BKN013 OVC050 19/18 A2997 RMK AO2 P0019 T01890178 $
KAMG 230827Z AUTO 10008G15KT 060V130 2SM +RA BR OVC007 19/18 A2996 RMK AO2 P0013 T01890178 $
KAMG 230753Z AUTO 15009KT 8SM -RA OVC007 19/18 A2999 RMK AO2 RAE01B08E27B52 SLP153 P0000 T01890178 $
KAMG 230705Z AUTO 13007KT 9SM OVC009 19/17 A3000 RMK AO2 RAE01 P0000 T01890172 $
KAMG 230653Z AUTO 10009G15KT 6SM -RA BR BKN010 OVC015 19/17 A3000 RMK AO2 RAE0556B17 SLP156 P0013 T01890172 $
KAMG 230651Z AUTO 11009KT 6SM -RA BR BKN010 OVC013 19/17 A3000 RMK AO2 RAE0556B17 P0013 $
KAMG 230641Z AUTO 10009G16KT 2SM +RA BR BKN010 OVC016 19/17 A3001 RMK AO2 RAE0556B17 P0013 T01890172 $
KAMG 230553Z AUTO 10010G17KT 10SM -RA OVC010 19/17 A3004 RMK AO2 RAB26 CIG 008V014 SLP170 P0000 60000 T01890172 10206 20189 58016 $
KAMG 230506Z AUTO 11011G19KT 10SM BKN012 OVC019 19/17 A3007 RMK AO2 T01890167 $
KAMG 230453Z AUTO 10011G17KT 10SM BKN015 BKN019 OVC043 19/17 A3007 RMK AO2 SLP180 T01890167 402280161 $
KAMG 230431Z AUTO 11008G20KT 070V140 10SM BKN015 BKN038 OVC045 19/16 A3008 RMK AO2 T01890161 $
KAMG 230417Z AUTO 11011G18KT 10SM SCT013 BKN042 OVC055 19/16 A3008 RMK AO2 T01890161 $
KAMG 230400Z AUTO 12009G19KT 10SM BKN013 OVC040 19/16 A3008 RMK AO2 T01890161 $
KAMG 230353Z AUTO 10010G22KT 10SM FEW013 OVC040 19/16 A3008 RMK AO2 SLP183 T01890161 $
KAMG 230253Z AUTO 10013G20KT 10SM SCT019 BKN041 OVC050 19/16 A3009 RMK AO2 SLP186 T01940156 56000 $
KAMG 230153Z AUTO 10010G17KT 060V130 10SM BKN050 20/16 A3010 RMK AO2 SLP191 T02000156 $
KAMG 230053Z AUTO 10011G18KT 10SM CLR 21/15 A3006 RMK AO2 SLP177 T02060150 $
KAMG 222353Z AUTO 10009G17KT 10SM BKN044 21/16 A3009 RMK AO2 SLP187 T02060156 10228 20206 $
KAMG 222253Z AUTO 10007G15KT 10SM OVC044 21/16 A3010 RMK AO2 SLP191 T02110156 $
KAMG 222153Z AUTO 10012G19KT 10SM BKN037 OVC046 22/16 A3008 RMK AO2 SLP184 T02170156 $
KAMG 222053Z AUTO 10004G16KT 10SM SCT050 OVC060 22/16 A3009 RMK AO2 SLP188 T02220156 58027
KAMG 221953Z AUTO 11011G18KT 10SM OVC055 22/15 A3011 RMK AO2 SLP194 T02220150
KAMG 221853Z AUTO 11009G17KT 10SM OVC050 22/16 A3016 RMK AO2 SLP211 T02170156
KAMG 221753Z AUTO 11010G18KT 10SM SCT041 OVC050 21/16 A3017 RMK AO2 SLP215 60006 T02110161 10211 20167 56016
KAMG 221653Z AUTO 10007KT 10SM BKN030 OVC036 21/17 A3019 RMK AO2 SLP219 T02060167
KAMG 221553Z AUTO 11010G17KT 10SM FEW039 OVC060 20/16 A3020 RMK AO2 SLP226 T02000161
KAMG 221453Z AUTO 09007KT 10SM OVC065 20/17 A3022 RMK AO2 SLP231 60006 T02000167 58003
KAMG 221353Z AUTO VRB03KT 9SM BKN060 OVC090 18/16 A3022 RMK AO2 RAE33 SLP231 P0004 T01780161
KAMG 221312Z AUTO 06005KT 3SM -RA BR FEW055 BKN070 OVC090 17/16 A3022 RMK AO2 P0003 T01670156
KAMG 221302Z AUTO 07004KT 2 1/2SM RA BR FEW055 BKN075 OVC090 17/16 A3023 RMK AO2 P0002 T01670156
KAMG 221253Z AUTO 00000KT 4SM -RA BR FEW050 SCT075 OVC090 17/16 A3023 RMK AO2 RAB1154E05B30 SLP234 P0002 T01720156
KAMG 221153Z AUTO 09004KT 10SM BKN070 OVC095 17/14 A3023 RMK AO2 SLP234 T01720144 10172 20161 53013
KAMG 221053Z AUTO 09004KT 10SM SCT046 SCT070 BKN085 17/14 A3020 RMK AO2 SLP224 T01670144
KAMG 220953Z AUTO 07004KT 10SM SCT043 BKN065 OVC085 17/14 A3020 RMK AO2 SLP223 T01670144
KAMG 220853Z AUTO 09004KT 10SM BKN085 OVC110 16/14 A3019 RMK AO2 SLP221 T01610139 56013
KAMG 220753Z AUTO 09004KT 10SM BKN085 OVC110 16/14 A3020 RMK AO2 SLP224 T01610139